This is the latest recevied weather packets stored in our database for station/object VE3ZEB-1. If no packets are shown the sender has not sent any weather packets the latest 10 day(s).
| Time | Temp. | Humidity | Pressure | Rain* | Wind** | Luminosity | Snow |
|---|---|---|---|---|---|---|---|
| 1777332025 | 18.89° C | 49% | 679.9 hPa | 0 mm | - | 49 W/m² | - |
| 1777327826 | 20° C | 47% | 679.9 hPa | 0 mm | - | 157 W/m² | - |
| 1777323067 | 20.56° C | 45% | 680 hPa | 0 mm | - | 241 W/m² | - |
| 1777319428 | 20.56° C | 44% | 680 hPa | 0 mm | - | 357 W/m² | - |
| 1777318828 | 20.56° C | 44% | 679.9 hPa | 0 mm | - | 422 W/m² | - |
| 1777316448 | 20° C | 46% | 679.9 hPa | 0 mm | - | 619 W/m² | - |
| 1777314629 | 20° C | 45% | 679.9 hPa | 0 mm | - | 742 W/m² | - |
| 1777308630 | 19.44° C | 50% | 679.9 hPa | 0 mm | - | 861 W/m² | - |
| 1777306231 | 18.33° C | 56% | 679.8 hPa | 0 mm | - | 868 W/m² | - |
| 1777305051 | 17.22° C | 58% | 679.8 hPa | 0 mm | - | 679 W/m² | - |
| 1777304451 | 16.67° C | 57% | 679.8 hPa | 0 mm | - | 411 W/m² | - |
| 1777303217 | 16.67° C | 58% | 679.8 hPa | 0 mm | - | 542 W/m² | - |
| 1777300233 | 15.56° C | 62% | 679.7 hPa | 0 mm | - | 490 W/m² | - |
| 1777299633 | 15.56° C | 62% | 679.7 hPa | 0 mm | - | 472 W/m² | - |
| 1777297218 | 13.33° C | 68% | 679.6 hPa | 0 mm | - | 253 W/m² | - |
| 1777282221 | 6.11° C | 68% | 679.3 hPa | 0 mm | - | 0 W/m² | - |
| 1777279822 | 6.11° C | 68% | 679.3 hPa | 0 mm | - | 0 W/m² | - |
| 1777273823 | 6.67° C | 67% | 679.4 hPa | 0 mm | - | 0 W/m² | - |
| 1777272023 | 7.22° C | 66% | 679.4 hPa | 0 mm | - | 0 W/m² | - |
| 1777269644 | 6.67° C | 62% | 679.4 hPa | 0 mm | - | 0 W/m² | - |
| 1777267224 | 6.67° C | 59% | 679.4 hPa | 0 mm | - | 0 W/m² | - |
| 1777264825 | 6.67° C | 60% | 679.4 hPa | 0 mm | - | 0 W/m² | - |
| 1777264245 | 7.22° C | 61% | 679.4 hPa | 0 mm | - | 0 W/m² | - |
| 1777262425 | 7.78° C | 60% | 679.4 hPa | 0 mm | - | 0 W/m² | - |
| 1777261826 | 7.78° C | 58% | 679.5 hPa | 0 mm | - | 0 W/m² | - |
* Rain latest hour (hover to see other rain measurements)
** Current wind speed in m/s (hover to see current wind gust speed)